createdAt,value
2018-01-07T00:01:12.681Z,32.35
2018-01-07T00:03:41.077Z,22.95
2018-01-07T00:06:09.454Z,19.45
2018-01-07T00:08:37.886Z,29.83
2018-01-07T00:11:07.130Z,16.92
2018-01-07T00:13:35.919Z,28.60
2018-01-07T00:16:05.026Z,24.50
2018-01-07T00:18:33.493Z,48.70
2018-01-07T00:21:01.888Z,18.90
2018-01-07T00:23:30.266Z,19.98
2018-01-07T00:25:59.030Z,30.62
2018-01-07T00:28:27.462Z,25.12
2018-01-07T00:30:56.716Z,22.35
2018-01-07T00:33:25.115Z,27.75
2018-01-07T00:35:53.525Z,20.85
2018-01-07T00:38:21.977Z,22.90
2018-01-07T00:40:50.407Z,23.48
2018-01-07T00:43:18.821Z,21.75
2018-01-07T00:45:47.295Z,28.52
2018-01-07T00:48:15.699Z,25.52
2018-01-07T00:50:44.457Z,18.98
2018-01-07T00:53:12.824Z,41.78
2018-01-07T00:55:41.197Z,20.15
2018-01-07T00:58:09.591Z,18.67
2018-01-07T01:00:38.002Z,21.70
2018-01-07T01:03:06.446Z,21.62
2018-01-07T01:05:34.813Z,12.13
2018-01-07T01:08:03.181Z,28.98
2018-01-07T01:10:31.699Z,13.55
2018-01-07T01:13:00.043Z,15.75
2018-01-07T01:15:28.632Z,32.70
2018-01-07T01:17:57.005Z,20.30
2018-01-07T01:20:25.382Z,22.87
2018-01-07T01:22:53.792Z,24.83
2018-01-07T01:25:22.159Z,71.62
2018-01-07T01:27:50.838Z,44.05
2018-01-07T01:30:19.219Z,31.80
2018-01-07T01:32:47.590Z,24.65
2018-01-07T01:35:16.005Z,20.70
2018-01-07T01:37:44.374Z,36.70
2018-01-07T01:40:12.933Z,24.67
2018-01-07T01:42:41.311Z,26.27
2018-01-07T01:45:09.693Z,53.92
2018-01-07T01:47:38.149Z,43.15
2018-01-07T01:50:06.526Z,28.08
2018-01-07T01:52:34.929Z,22.45
2018-01-07T01:55:03.298Z,34.03
2018-01-07T01:57:31.666Z,37.00
2018-01-07T02:00:00.071Z,19.02
2018-01-07T02:02:28.441Z,16.37
2018-01-07T02:04:57.231Z,21.58
2018-01-07T02:07:25.611Z,16.37
2018-01-07T02:09:53.970Z,17.35
2018-01-07T02:12:22.493Z,37.28
2018-01-07T02:14:50.862Z,25.80
2018-01-07T02:17:19.434Z,59.13
2018-01-07T02:19:47.848Z,21.20
2018-01-07T02:22:16.214Z,38.38
2018-01-07T02:24:44.609Z,27.27
2018-01-07T02:27:12.974Z,22.23
2018-01-07T02:29:41.393Z,17.87
2018-01-07T02:32:10.527Z,55.25
2018-01-07T02:34:38.895Z,32.45
2018-01-07T02:37:07.278Z,25.77
2018-01-07T02:39:35.643Z,36.67
2018-01-07T02:42:04.243Z,44.95
2018-01-07T02:44:32.614Z,52.83
2018-01-07T02:47:00.979Z,23.27
2018-01-07T02:49:29.385Z,46.55
2018-01-07T02:51:57.759Z,39.55
2018-01-07T02:54:26.335Z,27.92
2018-01-07T02:56:54.701Z,23.02
2018-01-07T02:59:23.081Z,30.70
2018-01-07T03:01:51.482Z,31.75
2018-01-07T03:04:19.841Z,17.12
2018-01-07T03:06:48.344Z,13.60
2018-01-07T03:09:16.710Z,17.98
2018-01-07T03:11:45.078Z,30.05
2018-01-07T03:14:13.482Z,23.00
2018-01-07T03:16:41.854Z,33.20
2018-01-07T03:19:10.270Z,18.67
2018-01-07T03:21:38.630Z,13.73
2018-01-07T03:24:06.997Z,23.20
2018-01-07T03:26:35.395Z,13.60
2018-01-07T03:29:03.762Z,17.48
2018-01-07T03:31:32.279Z,18.55
2018-01-07T03:34:01.414Z,17.70
2018-01-07T03:36:29.803Z,12.70
2018-01-07T03:38:58.195Z,13.05
2018-01-07T03:41:26.566Z,17.52
2018-01-07T03:43:54.998Z,13.88
2018-01-07T03:46:24.139Z,17.75
2018-01-07T03:48:52.501Z,13.10
2018-01-07T03:51:20.892Z,17.08
2018-01-07T03:53:49.258Z,39.10
2018-01-07T03:56:17.658Z,15.57
2018-01-07T03:58:46.018Z,12.80
2018-01-07T04:01:14.398Z,17.35
2018-01-07T04:03:42.797Z,12.20
2018-01-07T04:06:11.166Z,14.32
2018-01-07T04:08:39.735Z,13.25
2018-01-07T04:11:08.118Z,33.42
2018-01-07T04:13:36.479Z,25.98
2018-01-07T04:16:05.257Z,13.20
2018-01-07T04:18:33.662Z,19.05
2018-01-07T04:21:02.083Z,28.05
2018-01-07T04:23:31.268Z,17.42
2018-01-07T04:25:59.637Z,27.08
2018-01-07T04:28:28.022Z,27.37
2018-01-07T04:30:56.479Z,14.40
2018-01-07T04:33:25.038Z,15.88
2018-01-07T04:35:53.402Z,41.45
2018-01-07T04:38:21.777Z,15.15
2018-01-07T04:40:50.935Z,17.98
2018-01-07T04:43:19.307Z,20.67
2018-01-07T04:45:47.876Z,10.63
2018-01-07T04:48:16.251Z,18.27
2018-01-07T04:50:44.630Z,14.70
2018-01-07T04:53:13.026Z,17.95
2018-01-07T04:55:41.395Z,12.45
2018-01-07T04:58:09.956Z,13.73
2018-01-07T05:00:38.351Z,20.98
2018-01-07T05:03:06.725Z,10.50
2018-01-07T05:05:35.110Z,16.02
2018-01-07T05:08:03.531Z,26.83
2018-01-07T05:10:32.873Z,31.50
2018-01-07T05:13:01.235Z,20.95
2018-01-07T05:15:29.604Z,23.20
2018-01-07T05:17:58.766Z,23.65
2018-01-07T05:20:27.137Z,25.50
2018-01-07T05:22:55.525Z,43.50
2018-01-07T05:25:23.886Z,10.35
2018-01-07T05:27:52.246Z,9.02
2018-01-07T05:30:20.625Z,8.85
2018-01-07T05:32:48.990Z,17.70
2018-01-07T05:35:17.353Z,8.60
2018-01-07T05:37:45.750Z,12.27
2018-01-07T05:40:14.106Z,9.80
2018-01-07T05:42:42.490Z,13.75
2018-01-07T05:45:10.880Z,14.00
2018-01-07T05:47:39.241Z,22.50
2018-01-07T05:50:07.625Z,18.08
2018-01-07T05:52:35.989Z,14.60
2018-01-07T05:55:04.603Z,14.35
2018-01-07T05:57:32.973Z,26.20
2018-01-07T06:00:01.390Z,12.70
2018-01-07T06:02:29.784Z,41.15
2018-01-07T06:04:58.158Z,30.58
2018-01-07T06:07:26.906Z,18.92
2018-01-07T06:09:55.274Z,23.10
2018-01-07T06:12:23.639Z,28.55
2018-01-07T06:14:52.092Z,13.65
2018-01-07T06:17:20.498Z,17.75
2018-01-07T06:19:49.094Z,16.55
2018-01-07T06:22:17.465Z,16.70
2018-01-07T06:24:45.838Z,45.45
2018-01-07T06:27:14.286Z,33.90
2018-01-07T06:29:42.627Z,30.37
2018-01-07T06:32:11.413Z,30.10
2018-01-07T06:34:39.782Z,21.37
2018-01-07T06:37:08.142Z,29.23
2018-01-07T06:39:36.563Z,26.37
2018-01-07T06:42:04.930Z,44.28
2018-01-07T06:44:33.358Z,24.37
2018-01-07T06:47:02.490Z,27.45
2018-01-07T06:49:30.887Z,23.70
2018-01-07T06:51:59.296Z,26.45
2018-01-07T06:54:27.669Z,31.73
2018-01-07T06:56:56.044Z,31.05
2018-01-07T06:59:24.444Z,36.40
2018-01-07T07:01:53.586Z,31.15
2018-01-07T07:04:21.970Z,42.35
2018-01-07T07:06:50.380Z,36.97
2018-01-07T07:09:18.759Z,35.42
2018-01-07T07:11:48.633Z,24.80
2018-01-07T07:14:17.030Z,28.60
2018-01-07T07:16:45.395Z,31.25
2018-01-07T07:19:13.762Z,22.05
2018-01-07T07:21:42.166Z,29.77
2018-01-07T07:24:10.531Z,33.70
2018-01-07T07:26:38.897Z,26.90
2018-01-07T07:29:07.323Z,20.08
2018-01-07T07:31:36.452Z,21.27
2018-01-07T07:34:04.819Z,26.37
2018-01-07T07:36:34.009Z,30.45
2018-01-07T07:39:03.147Z,42.70
2018-01-07T07:41:31.512Z,26.50
2018-01-07T07:43:59.914Z,32.67
2018-01-07T07:46:28.287Z,26.73
2018-01-07T07:48:56.849Z,26.73
2018-01-07T07:51:25.254Z,36.25
2018-01-07T07:53:53.619Z,26.62
2018-01-07T07:56:21.990Z,33.67
2018-01-07T07:58:50.402Z,23.08
2018-01-07T08:01:18.773Z,22.17
2018-01-07T08:03:47.142Z,23.55
2018-01-07T08:06:15.543Z,20.27
2018-01-07T08:08:44.682Z,23.92
2018-01-07T08:11:13.809Z,18.37
2018-01-07T08:13:42.218Z,19.87
2018-01-07T08:16:10.590Z,19.42
2018-01-07T08:18:38.970Z,19.70
2018-01-07T08:21:07.376Z,19.52
2018-01-07T08:23:36.507Z,18.98
2018-01-07T08:26:04.870Z,18.12
2018-01-07T08:28:33.272Z,33.03
2018-01-07T08:31:01.643Z,18.83
2018-01-07T08:33:30.009Z,22.50
2018-01-07T08:35:58.417Z,20.77
2018-01-07T08:38:26.782Z,20.00
2018-01-07T08:40:55.157Z,22.42
2018-01-07T08:43:23.556Z,21.75
2018-01-07T08:45:51.927Z,18.83
2018-01-07T08:48:20.307Z,16.45
2018-01-07T08:50:48.715Z,17.75
2018-01-07T08:53:17.094Z,20.58
2018-01-07T08:55:45.462Z,22.13
2018-01-07T08:58:14.187Z,18.70
2018-01-07T09:00:43.318Z,20.10
2018-01-07T09:03:11.686Z,17.87
2018-01-07T09:05:40.085Z,14.70
2018-01-07T09:08:08.459Z,15.90
2018-01-07T09:10:36.822Z,18.75
2018-01-07T09:13:05.258Z,21.25
2018-01-07T09:15:33.634Z,14.05
2018-01-07T09:18:02.201Z,14.93
2018-01-07T09:20:30.632Z,16.50
2018-01-07T09:22:58.996Z,15.23
2018-01-07T09:25:28.122Z,19.90
2018-01-07T09:27:56.720Z,15.77
2018-01-07T09:30:25.090Z,20.08
2018-01-07T09:32:53.547Z,17.23
2018-01-07T09:35:22.019Z,15.60
2018-01-07T09:37:51.250Z,20.77
2018-01-07T09:40:19.680Z,16.85
2018-01-07T09:42:49.120Z,18.65
2018-01-07T09:45:17.506Z,16.90
2018-01-07T09:47:45.886Z,19.75
2018-01-07T09:50:14.278Z,18.23
2018-01-07T09:52:42.648Z,17.08
2018-01-07T09:55:11.017Z,20.08
2018-01-07T09:57:39.418Z,22.37
2018-01-07T10:00:07.782Z,17.58
2018-01-07T10:02:36.153Z,12.35
2018-01-07T10:05:04.647Z,13.88
2018-01-07T10:07:33.018Z,15.82
2018-01-07T10:10:01.394Z,16.12
2018-01-07T10:12:29.810Z,16.10
2018-01-07T10:14:58.939Z,13.82
2018-01-07T10:17:28.257Z,13.10
2018-01-07T10:19:56.863Z,18.12
2018-01-07T10:22:26.699Z,13.57
2018-01-07T10:24:55.898Z,13.20
2018-01-07T10:27:24.335Z,15.25
2018-01-07T10:29:52.819Z,15.90
2018-01-07T10:32:21.469Z,18.73
2018-01-07T10:34:50.749Z,18.35
2018-01-07T10:37:19.355Z,15.95
2018-01-07T10:39:48.657Z,16.62
2018-01-07T10:42:17.881Z,17.75
2018-01-07T10:44:46.511Z,18.77
2018-01-07T10:47:15.792Z,15.52
2018-01-07T10:49:44.511Z,16.85
2018-01-07T10:52:14.160Z,18.90
2018-01-07T10:54:42.988Z,20.12
2018-01-07T10:57:12.137Z,34.28
2018-01-07T10:59:41.367Z,21.30
2018-01-07T11:02:15.996Z,22.42
2018-01-07T11:04:44.963Z,20.73
2018-01-07T11:07:13.870Z,23.95
2018-01-07T11:09:42.825Z,23.52
2018-01-07T11:12:11.812Z,24.73
2018-01-07T11:14:41.449Z,25.37
2018-01-07T11:17:10.279Z,28.02
2018-01-07T11:19:38.646Z,28.02
2018-01-07T11:22:07.043Z,26.75
2018-01-07T11:24:35.709Z,25.37
2018-01-07T11:27:04.083Z,28.20
2018-01-07T11:29:32.449Z,30.05
2018-01-07T11:32:01.294Z,26.83
2018-01-07T11:34:30.527Z,28.02
2018-01-07T11:36:59.165Z,25.62
2018-01-07T11:39:28.482Z,30.77
2018-01-07T11:41:56.850Z,29.48
2018-01-07T11:44:25.994Z,30.20
2018-01-07T11:46:54.394Z,28.12
2018-01-07T11:49:22.882Z,28.60
2018-01-07T11:51:51.391Z,27.40
2018-01-07T11:54:20.791Z,24.10
2018-01-07T11:56:50.342Z,23.05
2018-01-07T11:59:19.870Z,16.87
2018-01-07T12:01:48.406Z,33.30
2018-01-07T12:04:16.955Z,30.95
2018-01-07T12:06:49.341Z,23.85
2018-01-07T12:09:18.791Z,20.95
2018-01-07T12:11:47.368Z,18.52
2018-01-07T12:14:17.536Z,17.52
2018-01-07T12:16:46.997Z,15.45
2018-01-07T12:19:16.478Z,17.65
2018-01-07T12:21:45.218Z,23.10
2018-01-07T12:24:14.018Z,19.55
2018-01-07T12:26:43.327Z,14.60
2018-01-07T12:29:12.706Z,20.17
2018-01-07T12:31:41.086Z,16.12
2018-01-07T12:34:09.740Z,18.40
2018-01-07T12:36:38.491Z,15.63
2018-01-07T12:39:07.726Z,17.87
2018-01-07T12:41:36.517Z,19.23
2018-01-07T12:44:05.306Z,19.65
2018-01-07T12:46:33.835Z,20.02
2018-01-07T12:49:03.385Z,25.23
2018-01-07T12:51:32.698Z,22.23
2018-01-07T12:54:01.386Z,21.00
2018-01-07T12:56:29.863Z,24.67
2018-01-07T12:58:58.542Z,22.05
2018-01-07T13:01:27.271Z,25.48
2018-01-07T13:03:56.018Z,22.15
2018-01-07T13:06:24.576Z,22.67
2018-01-07T13:08:56.776Z,29.67
2018-01-07T13:11:25.382Z,22.60
2018-01-07T13:13:53.847Z,26.35
2018-01-07T13:16:22.346Z,21.77
2018-01-07T13:18:50.770Z,22.87
2018-01-07T13:21:19.137Z,23.05
2018-01-07T13:23:47.597Z,20.02
2018-01-07T13:26:15.998Z,26.98
2018-01-07T13:28:44.370Z,21.77
2018-01-07T13:31:12.746Z,23.25
2018-01-07T13:33:41.138Z,23.50
2018-01-07T13:36:09.531Z,25.83
2018-01-07T13:38:37.946Z,24.33
2018-01-07T13:41:07.178Z,21.27
2018-01-07T13:43:35.549Z,30.80
2018-01-07T13:46:04.682Z,28.55
2018-01-07T13:48:33.370Z,27.23
2018-01-07T13:51:01.742Z,31.42
2018-01-07T13:53:30.110Z,25.40
2018-01-07T13:55:58.510Z,28.05
2018-01-07T13:58:26.879Z,27.27
2018-01-07T14:00:55.246Z,28.83
2018-01-07T14:03:23.730Z,20.80
2018-01-07T14:05:52.124Z,26.87
2018-01-07T14:08:22.041Z,29.55
2018-01-07T14:10:50.445Z,24.25
2018-01-07T14:13:18.817Z,21.23
2018-01-07T14:15:47.196Z,21.87
2018-01-07T14:18:15.585Z,23.25
2018-01-07T14:20:43.953Z,24.98
2018-01-07T14:23:12.718Z,28.05
2018-01-07T14:25:41.650Z,21.90
2018-01-07T14:28:10.292Z,26.50
2018-01-07T14:30:39.221Z,22.20
2018-01-07T14:33:07.856Z,25.08
2018-01-07T14:35:36.556Z,23.85
2018-01-07T14:38:04.944Z,26.60
2018-01-07T14:40:47.450Z,33.60
2018-01-07T14:43:16.361Z,29.85
2018-01-07T14:45:44.919Z,34.58
2018-01-07T14:48:13.285Z,24.85
2018-01-07T14:50:41.663Z,30.37
2018-01-07T14:53:10.059Z,31.77
2018-01-07T14:55:38.430Z,33.88
2018-01-07T14:58:06.942Z,35.00
2018-01-07T15:00:36.194Z,49.72
2018-01-07T15:03:04.579Z,38.30
2018-01-07T15:05:34.419Z,32.95
2018-01-07T15:08:03.701Z,34.80
2018-01-07T15:10:33.308Z,33.03
2018-01-07T15:13:01.683Z,33.42
2018-01-07T15:15:30.056Z,36.92
2018-01-07T15:17:58.453Z,32.97
2018-01-07T15:20:27.027Z,38.28
2018-01-07T15:22:55.650Z,33.90
2018-01-07T15:25:24.519Z,32.90
2018-01-07T15:27:53.966Z,32.58
2018-01-07T15:30:22.714Z,32.95
2018-01-07T15:32:51.086Z,36.80
2018-01-07T15:35:19.869Z,43.20
2018-01-07T15:37:48.926Z,39.97
2018-01-07T15:40:17.298Z,53.80
2018-01-07T15:42:45.730Z,39.03
2018-01-07T15:45:15.073Z,38.92
2018-01-07T15:47:44.514Z,37.40
2018-01-07T15:50:13.118Z,46.10
2018-01-07T15:52:41.538Z,47.92
2018-01-07T16:01:31.411Z,55.35
2018-01-07T16:03:59.841Z,43.10
2018-01-07T16:06:28.999Z,53.47
2018-01-07T16:08:57.567Z,42.33
2018-01-07T16:11:26.105Z,37.10
2018-01-07T16:13:55.764Z,46.88
2018-01-07T16:16:25.074Z,44.70
2018-01-07T16:18:53.839Z,42.08
2018-01-07T16:21:22.248Z,42.25
2018-01-07T16:23:50.618Z,43.13
2018-01-07T16:26:19.027Z,52.03
2018-01-07T16:28:51.813Z,48.83
2018-01-07T16:31:21.684Z,45.15
2018-01-07T16:33:50.106Z,46.97
2018-01-07T16:36:19.240Z,43.38
2018-01-07T16:38:47.659Z,49.80
2018-01-07T16:41:16.161Z,47.22
2018-01-07T16:43:45.296Z,47.42
2018-01-07T16:46:13.705Z,48.35
2018-01-07T16:48:42.074Z,53.40
2018-01-07T16:51:10.477Z,45.80
2018-01-07T16:53:39.901Z,47.30
2018-01-07T16:56:09.046Z,48.40
2018-01-07T16:58:37.530Z,55.95
2018-01-07T17:01:06.002Z,53.47
2018-01-07T17:03:35.386Z,48.47
2018-01-07T17:06:03.995Z,47.00
2018-01-07T17:08:33.705Z,61.85
2018-01-07T17:11:02.184Z,48.70
2018-01-07T17:13:30.870Z,46.70
2018-01-07T17:16:00.846Z,45.65
2018-01-07T17:18:30.613Z,44.80
2018-01-07T17:21:01.492Z,52.40
2018-01-07T17:23:32.114Z,40.60
2018-01-07T17:26:01.210Z,40.97
2018-01-07T17:28:31.977Z,42.00
2018-01-07T17:31:01.208Z,48.87
2018-01-07T17:33:29.861Z,44.95
2018-01-07T17:35:59.333Z,40.12
2018-01-07T17:38:29.094Z,40.75
2018-01-07T17:40:57.573Z,37.17
2018-01-07T17:43:25.982Z,34.78
2018-01-07T17:45:54.353Z,37.75
2018-01-07T17:48:23.498Z,44.65
2018-01-07T17:50:52.111Z,42.62
2018-01-07T17:53:20.498Z,38.63
2018-01-07T17:55:49.435Z,40.50
2018-01-07T17:58:18.324Z,44.53
2018-01-07T18:00:47.306Z,45.55
2018-01-07T18:03:16.914Z,38.38
2018-01-07T18:05:46.978Z,31.40
2018-01-07T18:08:15.584Z,36.35
2018-01-07T18:10:45.341Z,35.83
2018-01-07T18:13:13.770Z,38.25
2018-01-07T18:15:42.344Z,47.90
2018-01-07T18:18:10.889Z,52.90
2018-01-07T18:20:41.188Z,45.03
2018-01-07T18:23:09.938Z,39.10
2018-01-07T18:25:39.475Z,40.80
2018-01-07T18:28:08.353Z,48.20
2018-01-07T18:30:38.123Z,45.03
2018-01-07T18:33:06.932Z,48.28
2018-01-07T18:35:35.633Z,37.97
2018-01-07T18:38:04.267Z,47.20
2018-01-07T18:40:32.659Z,44.20
2018-01-07T18:43:01.163Z,54.40
2018-01-07T18:45:29.531Z,39.75
2018-01-07T18:47:57.972Z,43.60
2018-01-07T18:50:27.237Z,50.28
2018-01-07T18:52:55.769Z,43.70
2018-01-07T18:55:24.386Z,52.03
2018-01-07T18:57:52.783Z,43.13
2018-01-07T19:00:21.418Z,53.40
2018-01-07T19:02:50.945Z,51.08
2018-01-07T19:05:19.842Z,49.67
2018-01-07T19:07:48.345Z,48.33
2018-01-07T19:10:16.732Z,47.38
2018-01-07T19:12:45.285Z,50.92
2018-01-07T19:15:13.768Z,43.35
2018-01-07T19:17:42.177Z,40.58
2018-01-07T19:20:10.617Z,45.88
2018-01-07T19:22:39.312Z,47.47
2018-01-07T19:25:08.395Z,52.05
2018-01-07T19:27:36.843Z,55.05
2018-01-07T19:30:05.416Z,53.53
2018-01-07T19:32:33.852Z,53.58
2018-01-07T19:35:02.436Z,49.83
2018-01-07T19:37:32.245Z,56.17
2018-01-07T19:40:01.031Z,52.05
2018-01-07T19:42:29.977Z,49.67
2018-01-07T19:44:59.533Z,61.33
2018-01-07T19:47:28.473Z,56.00
2018-01-07T19:49:58.077Z,52.58
2018-01-07T19:52:27.714Z,55.55
2018-01-07T19:54:56.538Z,52.80
2018-01-07T19:57:25.010Z,49.05
2018-01-07T19:59:53.386Z,65.68
2018-01-07T20:02:22.363Z,57.13
2018-01-07T20:04:52.122Z,52.97
2018-01-07T20:07:22.366Z,54.35
2018-01-07T20:09:53.230Z,53.87
2018-01-07T20:12:23.413Z,54.75
2018-01-07T20:14:53.785Z,62.20
2018-01-07T20:17:23.117Z,56.08
2018-01-07T20:19:51.580Z,61.25
2018-01-07T20:22:20.836Z,70.53
2018-01-07T20:24:49.518Z,61.30
2018-01-07T20:27:17.947Z,50.17
2018-01-07T20:29:46.373Z,51.67
2018-01-07T20:32:15.517Z,50.55
2018-01-07T20:34:45.311Z,57.15
2018-01-07T20:37:13.766Z,60.83
2018-01-07T20:39:42.917Z,57.45
2018-01-07T20:42:11.466Z,50.88
2018-01-07T20:44:39.867Z,60.70
2018-01-07T20:47:08.679Z,59.88
2018-01-07T20:49:37.853Z,57.15
2018-01-07T20:52:06.530Z,50.90
2018-01-07T20:54:35.933Z,57.53
2018-01-07T20:57:05.177Z,63.70
2018-01-07T20:59:34.219Z,60.08
2018-01-07T21:02:03.017Z,58.22
2018-01-07T21:04:32.330Z,61.42
2018-01-07T21:07:02.286Z,55.08
2018-01-07T21:09:32.021Z,53.90
2018-01-07T21:12:01.075Z,55.67
2018-01-07T21:14:29.857Z,61.47
2018-01-07T21:17:00.992Z,55.60
2018-01-07T21:19:30.738Z,59.67
2018-01-07T21:21:59.180Z,61.70
2018-01-07T21:24:28.361Z,57.00
2018-01-07T21:26:57.271Z,59.30
2018-01-07T21:29:26.835Z,61.83
2018-01-07T21:31:56.001Z,60.70
2018-01-07T21:34:24.428Z,65.35
2018-01-07T21:36:52.964Z,66.40
2018-01-07T21:39:22.262Z,60.12
2018-01-07T21:41:51.538Z,61.37
2018-01-07T21:44:21.115Z,60.53
2018-01-07T21:46:49.702Z,56.42
2018-01-07T21:49:18.182Z,63.47
2018-01-07T21:51:46.605Z,58.47
2018-01-07T21:54:16.475Z,70.75
2018-01-07T21:56:46.869Z,63.42
2018-01-07T21:59:16.358Z,67.50
2018-01-07T22:02:03.398Z,64.90
2018-01-07T22:04:50.130Z,61.20
2018-01-07T22:07:19.261Z,69.82
2018-01-07T22:09:48.111Z,73.65
2018-01-07T22:12:21.233Z,70.15
2018-01-07T22:14:50.193Z,63.35
2018-01-07T22:17:19.771Z,69.00
2018-01-07T22:19:48.283Z,61.95
2018-01-07T22:22:17.762Z,71.57
2018-01-07T22:24:46.234Z,82.85
2018-01-07T22:27:14.955Z,71.35
2018-01-07T22:29:43.549Z,69.03
2018-01-07T22:32:12.327Z,59.58
2018-01-07T22:34:41.051Z,66.03
2018-01-07T22:37:09.614Z,65.60
2018-01-07T22:39:37.992Z,65.22
2018-01-07T22:42:06.915Z,82.35
2018-01-07T22:44:35.812Z,75.37
2018-01-07T22:47:05.392Z,66.10
2018-01-07T22:49:35.286Z,62.55
2018-01-07T22:52:03.793Z,62.53
2018-01-07T22:54:32.334Z,69.75
2018-01-07T22:57:00.958Z,77.95
2018-01-07T22:59:30.086Z,73.05
2018-01-07T23:01:58.458Z,66.78
2018-01-07T23:04:26.866Z,66.12
2018-01-07T23:06:55.244Z,66.60
2018-01-07T23:09:23.935Z,64.07
2018-01-07T23:11:52.334Z,70.18
2018-01-07T23:14:20.699Z,73.60
2018-01-07T23:16:49.188Z,73.50
2018-01-07T23:19:17.587Z,77.53
2018-01-07T23:21:45.953Z,65.65
2018-01-07T23:24:14.331Z,71.45
2018-01-07T23:26:42.763Z,71.30
2018-01-07T23:29:11.134Z,73.32
2018-01-07T23:31:39.502Z,67.47
2018-01-07T23:34:08.673Z,72.15
2018-01-07T23:36:37.043Z,77.10
2018-01-07T23:39:05.423Z,69.07
2018-01-07T23:41:33.830Z,71.07
2018-01-07T23:44:02.966Z,64.10
2018-01-07T23:46:31.392Z,64.53
2018-01-07T23:49:01.296Z,61.05
2018-01-07T23:51:29.666Z,71.47
2018-01-07T23:53:58.037Z,80.45
2018-01-07T23:56:26.809Z,71.43
2018-01-07T23:58:55.289Z,78.80
